createdAt,value
2019-03-10T00:00:44.120Z,15.00
2019-03-10T00:01:44.032Z,12.10
2019-03-10T00:02:44.137Z,13.30
2019-03-10T00:03:44.036Z,13.10
2019-03-10T00:04:44.060Z,15.30
2019-03-10T00:05:43.986Z,14.40
2019-03-10T00:06:44.057Z,17.00
2019-03-10T00:07:43.973Z,16.40
2019-03-10T00:08:44.136Z,14.50
2019-03-10T00:09:43.960Z,15.80
2019-03-10T00:10:43.984Z,15.40
2019-03-10T00:11:43.919Z,17.70
2019-03-10T00:12:44.002Z,17.60
2019-03-10T00:13:43.931Z,18.10
2019-03-10T00:14:44.011Z,17.80
2019-03-10T00:15:43.879Z,15.50
2019-03-10T00:16:43.944Z,15.30
2019-03-10T00:17:43.852Z,15.60
2019-03-10T00:18:43.953Z,21.90
2019-03-10T00:19:43.864Z,22.70
2019-03-10T00:20:43.864Z,14.40
2019-03-10T00:21:43.825Z,13.30
2019-03-10T00:22:43.875Z,16.60
2019-03-10T00:23:43.830Z,16.00
2019-03-10T00:24:44.832Z,15.90
2019-03-10T00:25:43.768Z,21.70
2019-03-10T00:26:43.820Z,15.60
2019-03-10T00:27:43.747Z,21.30
2019-03-10T00:28:43.806Z,17.40
2019-03-10T00:29:43.754Z,16.50
2019-03-10T00:30:43.827Z,13.90
2019-03-10T00:31:43.741Z,16.20
2019-03-10T00:32:43.740Z,18.20
2019-03-10T00:33:43.693Z,17.60
2019-03-10T00:34:43.778Z,19.30
2019-03-10T00:35:43.667Z,17.20
2019-03-10T00:36:43.796Z,21.80
2019-03-10T00:37:43.643Z,17.10
2019-03-10T00:38:43.668Z,18.10
2019-03-10T00:39:43.692Z,16.80
2019-03-10T00:40:43.685Z,18.80
2019-03-10T00:41:43.618Z,21.00
2019-03-10T00:42:43.708Z,17.90
2019-03-10T00:43:43.570Z,21.30
2019-03-10T00:44:43.634Z,19.60
2019-03-10T00:45:43.572Z,19.80
2019-03-10T00:46:45.511Z,15.40
2019-03-10T00:47:43.534Z,19.70
2019-03-10T00:48:43.643Z,20.40
2019-03-10T00:49:43.513Z,17.10
2019-03-10T00:50:43.592Z,18.70
2019-03-10T00:51:43.484Z,19.00
2019-03-10T00:52:43.588Z,16.50
2019-03-10T00:53:43.467Z,24.90
2019-03-10T00:54:43.598Z,21.70
2019-03-10T00:55:43.470Z,16.40
2019-03-10T00:56:43.491Z,19.30
2019-03-10T00:57:43.413Z,20.20
2019-03-10T00:58:43.502Z,20.00
2019-03-10T00:59:43.395Z,18.30
2019-03-10T01:00:43.436Z,18.90
2019-03-10T01:01:43.385Z,19.80
2019-03-10T01:02:43.435Z,18.40
2019-03-10T01:03:43.355Z,18.80
2019-03-10T01:04:43.459Z,18.00
2019-03-10T01:05:43.376Z,19.60
2019-03-10T01:06:43.389Z,20.80
2019-03-10T01:07:43.318Z,23.90
2019-03-10T01:08:43.367Z,16.50
2019-03-10T01:09:43.290Z,18.20
2019-03-10T01:10:43.380Z,17.60
2019-03-10T01:11:43.299Z,20.50
2019-03-10T01:12:43.295Z,19.10
2019-03-10T01:13:43.252Z,22.60
2019-03-10T01:14:43.308Z,16.10
2019-03-10T01:15:43.219Z,19.60
2019-03-10T01:16:43.346Z,21.20
2019-03-10T01:17:43.217Z,17.10
2019-03-10T01:18:43.236Z,17.00
2019-03-10T01:19:43.176Z,23.30
2019-03-10T01:20:43.240Z,17.60
2019-03-10T01:21:43.207Z,17.90
2019-03-10T01:22:43.311Z,24.10
2019-03-10T01:23:43.131Z,20.00
2019-03-10T01:24:43.166Z,23.60
2019-03-10T01:25:43.126Z,18.70
2019-03-10T01:26:43.210Z,22.70
2019-03-10T01:27:43.116Z,16.70
2019-03-10T01:28:43.193Z,23.70
2019-03-10T01:29:43.067Z,19.70
2019-03-10T01:30:43.102Z,15.50
2019-03-10T01:31:43.051Z,20.70
2019-03-10T01:32:43.162Z,22.00
2019-03-10T01:33:43.022Z,20.50
2019-03-10T01:34:43.147Z,18.50
2019-03-10T01:35:43.002Z,24.70
2019-03-10T01:36:43.061Z,21.10
2019-03-10T01:37:43.011Z,20.60
2019-03-10T01:38:43.061Z,21.10
2019-03-10T01:39:42.958Z,18.90
2019-03-10T01:40:43.074Z,20.70
2019-03-10T01:41:42.947Z,22.00
2019-03-10T01:42:43.017Z,20.30
2019-03-10T01:43:42.916Z,18.00
2019-03-10T01:44:43.022Z,17.20
2019-03-10T01:45:42.898Z,28.10
2019-03-10T01:46:42.915Z,22.00
2019-03-10T01:47:42.897Z,17.70
2019-03-10T01:48:42.942Z,19.20
2019-03-10T01:49:42.851Z,22.90
2019-03-10T01:50:42.939Z,22.10
2019-03-10T01:51:42.831Z,23.90
2019-03-10T01:52:42.881Z,20.10
2019-03-10T01:53:42.857Z,23.20
2019-03-10T01:54:42.891Z,22.90
2019-03-10T01:55:42.789Z,20.00
2019-03-10T01:56:42.875Z,17.70
2019-03-10T01:57:42.812Z,20.40
2019-03-10T01:58:42.829Z,23.70
2019-03-10T01:59:42.737Z,25.70
2019-03-10T02:00:42.802Z,18.30
2019-03-10T02:01:42.729Z,22.80
2019-03-10T02:02:42.818Z,22.90
2019-03-10T02:03:42.733Z,22.70
2019-03-10T02:04:42.761Z,23.20
2019-03-10T02:05:42.686Z,22.30
2019-03-10T02:06:42.743Z,23.80
2019-03-10T02:07:42.660Z,20.40
2019-03-10T02:08:42.801Z,19.90
2019-03-10T02:09:42.635Z,21.90
2019-03-10T02:10:42.768Z,20.20
2019-03-10T02:11:42.611Z,22.20
2019-03-10T02:12:42.683Z,25.10
2019-03-10T02:13:42.672Z,19.40
2019-03-10T02:14:42.706Z,28.00
2019-03-10T02:15:42.565Z,28.00
2019-03-10T02:16:42.664Z,22.40
2019-03-10T02:17:42.545Z,19.90
2019-03-10T02:18:42.650Z,24.40
2019-03-10T02:19:42.518Z,24.80
2019-03-10T02:20:42.635Z,25.80
2019-03-10T02:21:42.505Z,27.40
2019-03-10T02:22:42.558Z,24.80
2019-03-10T02:23:42.483Z,24.00
2019-03-10T02:24:42.594Z,26.10
2019-03-10T02:25:42.480Z,24.40
2019-03-10T02:26:42.477Z,26.70
2019-03-10T02:27:42.436Z,26.80
2019-03-10T02:28:42.556Z,25.20
2019-03-10T02:29:42.447Z,25.10
2019-03-10T02:30:42.500Z,27.20
2019-03-10T02:31:42.396Z,27.10
2019-03-10T02:32:42.422Z,25.60
2019-03-10T02:33:42.384Z,25.20
2019-03-10T02:34:42.466Z,22.70
2019-03-10T02:35:42.351Z,34.00
2019-03-10T02:36:42.441Z,23.40
2019-03-10T02:37:42.406Z,26.20
2019-03-10T02:38:42.354Z,21.20
2019-03-10T02:39:42.333Z,24.60
2019-03-10T02:40:43.576Z,29.30
2019-03-10T02:41:42.287Z,26.90
2019-03-10T02:42:42.377Z,25.30
2019-03-10T02:43:42.274Z,22.90
2019-03-10T02:44:42.333Z,25.40
2019-03-10T02:45:42.279Z,28.50
2019-03-10T02:46:42.344Z,20.80
2019-03-10T02:47:42.214Z,25.00
2019-03-10T02:48:42.317Z,24.90
2019-03-10T02:49:42.224Z,27.40
2019-03-10T02:50:42.260Z,25.10
2019-03-10T02:51:42.198Z,20.50
2019-03-10T02:52:42.243Z,20.60
2019-03-10T02:53:42.153Z,22.80
2019-03-10T02:54:42.256Z,29.10
2019-03-10T02:55:42.160Z,27.10
2019-03-10T02:56:42.197Z,26.50
2019-03-10T02:57:42.141Z,26.00
2019-03-10T02:58:42.178Z,29.60
2019-03-10T02:59:42.118Z,27.90
2019-03-10T03:00:42.193Z,26.60
2019-03-10T03:01:42.063Z,26.80
2019-03-10T03:02:42.108Z,29.60
2019-03-10T03:03:42.047Z,24.50
2019-03-10T03:04:43.182Z,28.20
2019-03-10T03:05:42.033Z,27.80
2019-03-10T03:06:42.044Z,31.70
2019-03-10T03:07:41.998Z,30.30
2019-03-10T03:08:42.049Z,26.40
2019-03-10T03:09:41.978Z,34.30
2019-03-10T03:10:42.088Z,26.40
2019-03-10T03:11:41.961Z,28.30
2019-03-10T03:12:41.975Z,32.60
2019-03-10T03:13:41.943Z,31.90
2019-03-10T03:14:41.992Z,32.70
2019-03-10T03:15:41.985Z,27.50
2019-03-10T03:16:42.037Z,38.30
2019-03-10T03:17:41.888Z,26.70
2019-03-10T03:18:41.913Z,32.30
2019-03-10T03:19:41.873Z,25.90
2019-03-10T03:20:41.934Z,30.70
2019-03-10T03:21:43.686Z,31.40
2019-03-10T03:22:41.940Z,34.70
2019-03-10T03:23:41.824Z,30.20
2019-03-10T03:24:41.854Z,36.10
2019-03-10T03:25:41.802Z,33.70
2019-03-10T03:26:41.916Z,38.90
2019-03-10T03:27:41.777Z,35.10
2019-03-10T03:28:41.900Z,39.00
2019-03-10T03:29:41.752Z,29.80
2019-03-10T03:30:41.857Z,36.90
2019-03-10T03:31:41.773Z,32.20
2019-03-10T03:32:41.806Z,34.10
2019-03-10T03:33:41.744Z,37.60
2019-03-10T03:34:41.821Z,35.00
2019-03-10T03:35:41.724Z,37.10
2019-03-10T03:36:41.761Z,28.50
2019-03-10T03:37:41.672Z,42.60
2019-03-10T03:38:41.743Z,35.90
2019-03-10T03:39:41.649Z,38.40
2019-03-10T03:40:41.765Z,41.10
2019-03-10T03:41:41.649Z,35.60
2019-03-10T03:43:42.739Z,38.60
2019-03-10T03:44:41.693Z,38.20
2019-03-10T03:45:41.583Z,40.40
2019-03-10T03:46:41.732Z,38.40
2019-03-10T03:47:41.570Z,38.80
2019-03-10T03:48:41.614Z,45.50
2019-03-10T03:49:41.539Z,35.10
2019-03-10T03:50:41.626Z,41.60
2019-03-10T03:51:41.542Z,46.30
2019-03-10T03:52:41.536Z,38.00
2019-03-10T03:53:41.511Z,33.70
2019-03-10T03:54:41.549Z,43.50
2019-03-10T03:55:41.480Z,37.90
2019-03-10T03:56:41.601Z,31.50
2019-03-10T03:57:41.453Z,37.90
2019-03-10T03:58:41.475Z,35.00
2019-03-10T03:59:41.501Z,36.70
2019-03-10T04:00:41.498Z,38.30
2019-03-10T04:01:41.415Z,34.90
2019-03-10T04:02:41.560Z,35.70
2019-03-10T04:03:41.388Z,30.80
2019-03-10T04:04:41.419Z,26.90
2019-03-10T04:05:41.380Z,39.30
2019-03-10T04:06:41.429Z,35.10
2019-03-10T04:07:41.365Z,32.00
2019-03-10T04:08:41.450Z,38.20
2019-03-10T04:09:41.327Z,36.90
2019-03-10T04:10:41.356Z,37.50
2019-03-10T04:11:41.309Z,34.80
2019-03-10T04:12:41.400Z,38.00
2019-03-10T04:13:41.284Z,31.40
2019-03-10T04:14:41.384Z,36.30
2019-03-10T04:15:41.258Z,31.90
2019-03-10T04:16:41.403Z,36.30
2019-03-10T04:17:41.292Z,34.80
2019-03-10T04:18:41.308Z,35.10
2019-03-10T04:19:41.240Z,36.10
2019-03-10T04:20:41.339Z,39.90
2019-03-10T04:21:41.221Z,40.60
2019-03-10T04:22:41.307Z,34.40
2019-03-10T04:23:41.204Z,33.60
2019-03-10T04:24:41.287Z,35.70
2019-03-10T04:25:41.158Z,38.80
2019-03-10T04:26:41.160Z,39.90
2019-03-10T04:27:41.144Z,39.40
2019-03-10T04:28:41.226Z,45.20
2019-03-10T04:29:41.163Z,37.90
2019-03-10T04:30:41.186Z,45.70
2019-03-10T04:31:41.092Z,44.50
2019-03-10T04:32:41.141Z,45.00
2019-03-10T04:33:41.066Z,43.90
2019-03-10T04:34:41.114Z,37.80
2019-03-10T04:35:41.035Z,45.10
2019-03-10T04:36:41.141Z,43.10
2019-03-10T04:37:41.016Z,41.90
2019-03-10T04:38:41.084Z,38.00
2019-03-10T04:39:40.995Z,43.00
2019-03-10T04:40:41.058Z,47.20
2019-03-10T04:41:40.969Z,46.30
2019-03-10T04:42:41.085Z,39.00
2019-03-10T04:43:40.982Z,43.80
2019-03-10T04:44:41.057Z,41.30
2019-03-10T04:45:40.931Z,46.30
2019-03-10T04:46:41.009Z,45.00
2019-03-10T04:47:40.914Z,48.50
2019-03-10T04:48:41.034Z,46.10
2019-03-10T04:49:40.898Z,45.70
2019-03-10T04:50:40.931Z,51.20
2019-03-10T04:51:40.882Z,37.20
2019-03-10T04:52:40.944Z,47.00
2019-03-10T04:53:40.876Z,47.30
2019-03-10T04:54:40.945Z,46.20
2019-03-10T04:55:40.860Z,42.80
2019-03-10T04:56:40.859Z,41.30
2019-03-10T04:57:40.801Z,47.40
2019-03-10T04:58:40.916Z,42.40
2019-03-10T04:59:40.770Z,42.10
2019-03-10T05:00:40.892Z,42.00
2019-03-10T05:01:40.800Z,45.50
2019-03-10T05:02:40.802Z,35.60
2019-03-10T05:03:40.754Z,48.30
2019-03-10T05:04:40.949Z,46.50
2019-03-10T05:05:40.741Z,37.60
2019-03-10T05:06:40.825Z,39.80
2019-03-10T05:07:40.728Z,46.30
2019-03-10T05:08:40.744Z,37.70
2019-03-10T05:09:40.690Z,35.50
2019-03-10T05:10:40.749Z,40.60
2019-03-10T05:11:40.678Z,41.60
2019-03-10T05:12:40.701Z,41.90
2019-03-10T05:13:40.633Z,49.20
2019-03-10T05:14:40.702Z,43.60
2019-03-10T05:15:40.597Z,40.70
2019-03-10T05:16:40.700Z,42.20
2019-03-10T05:17:40.577Z,51.20
2019-03-10T05:18:40.620Z,42.00
2019-03-10T05:19:40.602Z,42.00
2019-03-10T05:20:40.613Z,38.40
2019-03-10T05:21:40.543Z,42.40
2019-03-10T05:22:40.630Z,41.10
2019-03-10T05:23:40.547Z,42.40
2019-03-10T05:24:40.577Z,40.30
2019-03-10T05:25:40.493Z,41.50
2019-03-10T05:26:40.556Z,49.60
2019-03-10T05:27:40.503Z,35.50
2019-03-10T05:28:40.570Z,37.50
2019-03-10T05:29:40.484Z,41.80
2019-03-10T05:30:40.486Z,41.10
2019-03-10T05:31:40.429Z,42.90
2019-03-10T05:32:40.491Z,36.30
2019-03-10T05:33:40.403Z,35.70
2019-03-10T05:34:40.502Z,33.70
2019-03-10T05:35:40.407Z,34.00
2019-03-10T05:36:40.418Z,44.70
2019-03-10T05:37:40.365Z,43.00
2019-03-10T05:38:40.426Z,36.90
2019-03-10T05:39:40.335Z,43.60
2019-03-10T05:40:40.438Z,37.40
2019-03-10T05:41:40.314Z,40.10
2019-03-10T05:42:40.355Z,39.00
2019-03-10T05:43:40.294Z,40.10
2019-03-10T05:44:40.375Z,37.40
2019-03-10T05:45:40.327Z,44.60
2019-03-10T05:46:40.400Z,43.90
2019-03-10T05:47:40.245Z,44.50
2019-03-10T05:48:40.293Z,44.80
2019-03-10T05:49:40.225Z,35.50
2019-03-10T05:50:40.315Z,38.10
2019-03-10T05:51:40.231Z,37.30
2019-03-10T05:52:40.242Z,44.30
2019-03-10T05:53:40.196Z,45.30
2019-03-10T05:54:40.247Z,38.40
2019-03-10T05:55:40.167Z,47.10
2019-03-10T05:56:40.302Z,51.30
2019-03-10T05:57:40.136Z,36.30
2019-03-10T05:58:40.193Z,38.30
2019-03-10T05:59:40.123Z,53.00
2019-03-10T06:00:42.884Z,47.40
2019-03-10T06:01:40.125Z,61.50
2019-03-10T06:02:40.195Z,57.80
2019-03-10T06:03:40.075Z,50.40
2019-03-10T06:04:40.112Z,53.90
2019-03-10T06:05:40.050Z,54.50
2019-03-10T06:06:40.166Z,50.80
2019-03-10T06:07:40.034Z,47.30
2019-03-10T06:08:40.144Z,45.40
2019-03-10T06:09:40.008Z,50.10
2019-03-10T06:10:40.044Z,52.70
2019-03-10T06:11:40.034Z,56.60
2019-03-10T06:12:40.062Z,59.00
2019-03-10T06:13:39.978Z,45.90
2019-03-10T06:14:40.070Z,49.30
2019-03-10T06:15:39.941Z,67.50
2019-03-10T06:16:40.004Z,55.80
2019-03-10T06:17:39.917Z,58.00
2019-03-10T06:18:39.998Z,48.70
2019-03-10T06:19:39.889Z,55.90
2019-03-10T06:20:40.016Z,63.20
2019-03-10T06:21:39.873Z,53.70
2019-03-10T06:22:39.946Z,58.50
2019-03-10T06:23:39.851Z,53.80
2019-03-10T06:24:39.953Z,50.60
2019-03-10T06:25:39.850Z,51.50
2019-03-10T06:26:39.856Z,56.10
2019-03-10T06:27:39.872Z,49.70
2019-03-10T06:28:39.866Z,51.40
2019-03-10T06:29:39.784Z,47.80
2019-03-10T06:30:39.880Z,62.70
2019-03-10T06:31:39.780Z,50.50
2019-03-10T06:32:39.876Z,53.00
2019-03-10T06:33:39.751Z,64.60
2019-03-10T06:34:39.798Z,47.30
2019-03-10T06:35:39.713Z,60.30
2019-03-10T06:36:39.811Z,50.50
2019-03-10T06:37:39.727Z,43.60
2019-03-10T06:38:39.727Z,52.60
2019-03-10T06:39:39.682Z,56.50
2019-03-10T06:40:39.747Z,58.80
2019-03-10T06:41:39.648Z,55.70
2019-03-10T06:42:39.783Z,62.00
2019-03-10T06:43:39.666Z,45.20
2019-03-10T06:44:39.687Z,57.70
2019-03-10T06:45:39.616Z,57.90
2019-03-10T06:46:39.722Z,54.50
2019-03-10T06:47:39.618Z,52.60
2019-03-10T06:48:39.722Z,51.80
2019-03-10T06:49:39.575Z,48.20
2019-03-10T06:50:39.612Z,55.90
2019-03-10T06:51:39.545Z,53.90
2019-03-10T06:52:39.619Z,56.60
2019-03-10T06:53:39.546Z,59.20
2019-03-10T06:54:39.632Z,53.00
2019-03-10T06:55:39.500Z,60.20
2019-03-10T06:56:39.538Z,53.60
2019-03-10T06:57:39.481Z,52.20
2019-03-10T06:58:39.592Z,70.70
2019-03-10T06:59:39.459Z,59.50
2019-03-10T07:00:39.577Z,53.20
2019-03-10T07:01:39.441Z,67.30
2019-03-10T07:02:39.488Z,66.70
2019-03-10T07:03:39.459Z,64.80
2019-03-10T07:04:39.544Z,72.70
2019-03-10T07:05:39.381Z,64.80
2019-03-10T07:06:39.411Z,49.70
2019-03-10T07:07:39.378Z,68.10
2019-03-10T07:08:39.531Z,64.10
2019-03-10T07:09:39.342Z,65.00
2019-03-10T07:10:39.429Z,73.70
2019-03-10T07:11:39.321Z,62.90
2019-03-10T07:12:39.341Z,54.50
2019-03-10T07:13:39.788Z,56.60
2019-03-10T07:14:39.365Z,62.20
2019-03-10T07:15:39.281Z,61.20
2019-03-10T07:16:39.371Z,65.50
2019-03-10T07:17:39.299Z,66.90
2019-03-10T07:18:39.343Z,66.60
2019-03-10T07:19:39.257Z,58.80
2019-03-10T07:20:39.322Z,62.80
2019-03-10T07:21:39.215Z,61.70
2019-03-10T07:22:39.333Z,55.40
2019-03-10T07:23:39.185Z,67.80
2019-03-10T07:24:39.277Z,43.00
2019-03-10T07:25:39.171Z,21.00
2019-03-10T07:26:39.252Z,26.20
2019-03-10T07:27:39.154Z,32.40
2019-03-10T07:28:39.259Z,28.10
2019-03-10T07:29:39.147Z,25.70
2019-03-10T07:30:39.487Z,21.20
2019-03-10T07:31:39.101Z,21.40
2019-03-10T07:32:39.176Z,17.00
2019-03-10T07:33:39.084Z,17.20
2019-03-10T07:34:39.116Z,13.50
2019-03-10T07:35:39.061Z,15.70
2019-03-10T07:36:39.094Z,20.30
2019-03-10T07:37:39.028Z,17.40
2019-03-10T07:38:39.113Z,15.10
2019-03-10T07:39:39.060Z,17.90
2019-03-10T07:40:39.026Z,18.10
2019-03-10T07:41:39.012Z,16.10
2019-03-10T07:42:39.048Z,17.50
2019-03-10T07:43:38.973Z,13.70
2019-03-10T07:44:39.080Z,14.90
2019-03-10T07:45:38.975Z,14.30
2019-03-10T07:46:38.978Z,13.80
2019-03-10T07:47:38.919Z,17.50
2019-03-10T07:48:38.979Z,13.60
2019-03-10T07:49:38.903Z,16.40
2019-03-10T07:50:38.993Z,16.90
2019-03-10T07:51:38.927Z,18.60
2019-03-10T07:52:38.903Z,22.20
2019-03-10T07:53:38.949Z,23.00
2019-03-10T07:55:40.011Z,23.80
2019-03-10T07:56:38.943Z,22.10
2019-03-10T07:57:38.823Z,21.90
2019-03-10T07:58:38.845Z,14.60
2019-03-10T07:59:38.791Z,13.30
2019-03-10T08:00:38.882Z,15.10
2019-03-10T08:01:38.769Z,15.30
2019-03-10T08:02:38.873Z,19.10
2019-03-10T08:03:38.772Z,16.30
2019-03-10T08:04:38.777Z,15.30
2019-03-10T08:05:38.775Z,13.20
2019-03-10T08:06:38.847Z,14.70
2019-03-10T08:07:38.711Z,15.40
2019-03-10T08:09:39.821Z,16.80
2019-03-10T08:10:38.770Z,12.80
2019-03-10T08:11:38.823Z,11.60
2019-03-10T08:12:38.756Z,9.20
2019-03-10T08:13:38.636Z,9.90
2019-03-10T08:14:38.745Z,13.30
2019-03-10T08:15:38.624Z,14.60
2019-03-10T08:16:38.689Z,11.00
2019-03-10T08:17:38.593Z,13.80
2019-03-10T08:18:38.677Z,17.30
2019-03-10T08:19:38.585Z,10.50
2019-03-10T08:20:38.598Z,22.10
2019-03-10T08:21:38.614Z,14.30
2019-03-10T08:22:38.598Z,15.00
2019-03-10T08:23:38.533Z,7.50
2019-03-10T08:24:38.614Z,15.50
2019-03-10T08:25:38.507Z,8.70
2019-03-10T08:26:38.562Z,11.20
2019-03-10T08:27:38.519Z,11.60
2019-03-10T08:28:38.542Z,8.70
2019-03-10T08:29:38.461Z,10.80
2019-03-10T08:30:38.556Z,11.10
2019-03-10T08:31:38.473Z,13.40
2019-03-10T08:32:38.497Z,13.40
2019-03-10T08:33:38.413Z,10.50
2019-03-10T08:34:38.479Z,12.40
2019-03-10T08:35:38.392Z,14.50
2019-03-10T08:36:38.502Z,11.70
2019-03-10T08:37:38.394Z,9.30
2019-03-10T08:38:38.414Z,11.50
2019-03-10T08:39:38.348Z,10.90
2019-03-10T08:40:38.415Z,13.60
2019-03-10T08:41:38.326Z,14.60
2019-03-10T08:42:38.466Z,11.70
2019-03-10T08:43:38.366Z,10.50
2019-03-10T08:44:38.354Z,7.80
2019-03-10T08:45:38.292Z,10.70
2019-03-10T08:46:38.364Z,15.80
2019-03-10T08:47:38.394Z,10.90
2019-03-10T08:48:38.378Z,13.20
2019-03-10T08:49:44.974Z,14.90
2019-03-10T08:51:39.348Z,15.10
2019-03-10T08:52:38.328Z,12.10
2019-03-10T08:53:38.216Z,13.70
2019-03-10T08:54:38.218Z,11.90
2019-03-10T08:55:38.171Z,11.60
2019-03-10T08:56:38.266Z,11.90
2019-03-10T08:57:38.154Z,10.50
2019-03-10T08:58:38.286Z,10.60
2019-03-10T08:59:38.263Z,11.40
2019-03-10T09:00:38.150Z,15.10
2019-03-10T09:01:38.281Z,15.80
2019-03-10T09:02:38.165Z,14.50
2019-03-10T09:03:38.114Z,14.50
2019-03-10T09:04:38.173Z,14.50
2019-03-10T09:05:38.075Z,14.20
2019-03-10T09:06:38.098Z,10.50
2019-03-10T09:07:38.037Z,12.30
2019-03-10T09:08:38.153Z,14.30
2019-03-10T09:09:38.018Z,10.90
2019-03-10T09:10:38.110Z,14.00
2019-03-10T09:11:38.001Z,12.70
2019-03-10T09:12:38.027Z,12.30
2019-03-10T09:13:38.018Z,10.00
2019-03-10T09:14:38.046Z,9.60
2019-03-10T09:15:37.951Z,13.40
2019-03-10T09:16:38.058Z,12.90
2019-03-10T09:17:37.943Z,11.40
2019-03-10T09:18:38.003Z,9.90
2019-03-10T09:19:37.934Z,9.80
2019-03-10T09:21:39.836Z,10.50
2019-03-10T09:22:38.006Z,12.00
2019-03-10T09:23:37.870Z,14.50
2019-03-10T09:24:37.948Z,12.20
2019-03-10T09:25:37.842Z,12.10
2019-03-10T09:26:38.027Z,16.80
2019-03-10T09:27:37.836Z,14.50
2019-03-10T09:28:38.041Z,12.00
2019-03-10T09:29:37.823Z,18.50
2019-03-10T09:31:38.957Z,10.30
2019-03-10T09:32:38.172Z,12.60
2019-03-10T09:33:37.768Z,17.50
2019-03-10T09:34:38.427Z,10.50
2019-03-10T09:35:37.777Z,14.10
2019-03-10T09:37:38.868Z,11.80
2019-03-10T09:39:38.871Z,12.40
2019-03-10T09:40:38.772Z,13.80
2019-03-10T09:41:37.675Z,13.40
2019-03-10T09:43:38.815Z,11.90
2019-03-10T09:44:38.913Z,14.40
2019-03-10T09:45:40.912Z,14.40
2019-03-10T09:47:38.752Z,15.50
2019-03-10T09:49:38.741Z,14.00
2019-03-10T09:50:39.246Z,12.30
2019-03-10T09:51:37.580Z,13.00
2019-03-10T09:53:38.800Z,13.20
2019-03-10T09:54:39.757Z,16.10
2019-03-10T09:55:37.543Z,14.10
2019-03-10T09:56:40.247Z,15.10
2019-03-10T09:57:37.488Z,19.50
2019-03-10T09:59:38.606Z,14.40
2019-03-10T10:00:41.048Z,14.70
2019-03-10T10:01:40.010Z,14.60
2019-03-10T10:02:37.450Z,13.60
2019-03-10T10:04:38.561Z,15.10
2019-03-10T10:06:37.413Z,12.70
2019-03-10T10:08:38.523Z,15.30
2019-03-10T10:10:38.536Z,11.70
2019-03-10T10:11:41.235Z,13.70
2019-03-10T10:12:37.335Z,14.80
2019-03-10T10:13:41.036Z,14.80
2019-03-10T10:14:37.635Z,14.20
2019-03-10T10:16:38.494Z,10.70
2019-03-10T10:18:38.389Z,11.40
2019-03-10T10:20:38.399Z,11.30
2019-03-10T10:21:40.594Z,9.50
2019-03-10T10:22:37.244Z,9.50
2019-03-10T10:24:38.330Z,10.70
2019-03-10T10:26:38.395Z,13.00
2019-03-10T10:27:41.157Z,8.80
2019-03-10T10:28:37.289Z,9.50
2019-03-10T10:29:41.159Z,10.00
2019-03-10T10:30:37.290Z,10.70
2019-03-10T10:32:37.158Z,10.20
2019-03-10T10:37:07.778Z,13.30
2019-03-10T10:38:17.970Z,13.50
2019-03-10T10:39:08.743Z,13.00
2019-03-10T10:40:07.746Z,11.40
2019-03-10T10:41:08.481Z,12.20
2019-03-10T10:42:07.714Z,9.20
2019-03-10T10:43:07.591Z,11.00
2019-03-10T10:44:07.640Z,13.40
2019-03-10T10:45:07.648Z,11.20
2019-03-10T10:46:07.537Z,12.80
2019-03-10T10:47:07.584Z,17.20
2019-03-10T10:48:07.994Z,10.80
2019-03-10T10:49:07.578Z,13.00
2019-03-10T10:50:07.471Z,13.40
2019-03-10T10:51:07.596Z,12.70
2019-03-10T10:52:07.457Z,9.30
2019-03-10T10:53:07.528Z,12.50
2019-03-10T10:54:07.432Z,9.20
2019-03-10T10:55:07.536Z,10.20
2019-03-10T10:56:07.427Z,10.30
2019-03-10T10:57:07.443Z,10.50
2019-03-10T10:58:07.420Z,10.80
2019-03-10T10:59:07.446Z,10.40
2019-03-10T11:00:07.371Z,9.30
2019-03-10T11:01:09.869Z,10.20
2019-03-10T11:02:07.337Z,12.90
2019-03-10T11:03:07.605Z,6.80
2019-03-10T11:04:07.302Z,13.20
2019-03-10T11:05:07.389Z,12.10
2019-03-10T11:06:07.309Z,9.30
2019-03-10T11:07:07.395Z,12.00
2019-03-10T11:08:07.304Z,9.70
2019-03-10T11:09:07.317Z,12.80
2019-03-10T11:10:07.257Z,13.30
2019-03-10T11:11:07.318Z,9.90
2019-03-10T11:12:07.222Z,9.10
2019-03-10T11:13:07.466Z,9.40
2019-03-10T11:14:07.192Z,14.00
2019-03-10T11:15:07.253Z,9.20
2019-03-10T11:16:07.190Z,9.20
2019-03-10T11:17:07.255Z,10.20
2019-03-10T11:18:09.734Z,10.60
2019-03-10T11:19:07.313Z,12.10
2019-03-10T11:20:07.137Z,16.10
2019-03-10T11:21:07.186Z,11.60
2019-03-10T11:22:07.108Z,9.40
2019-03-10T11:23:07.373Z,12.30
2019-03-10T11:24:07.124Z,10.80
2019-03-10T11:25:07.264Z,12.70
2019-03-10T11:26:08.528Z,11.90
2019-03-10T11:27:07.122Z,14.30
2019-03-10T11:28:07.044Z,16.80
2019-03-10T11:29:07.169Z,13.00
2019-03-10T11:30:07.049Z,15.50
2019-03-10T11:31:07.053Z,15.50
2019-03-10T11:32:07.004Z,15.80
2019-03-10T11:33:07.071Z,15.00
2019-03-10T11:34:07.012Z,15.80
2019-03-10T11:35:07.074Z,15.50
2019-03-10T11:36:06.973Z,13.70
2019-03-10T11:37:06.991Z,14.60
2019-03-10T11:38:06.942Z,17.40
2019-03-10T11:39:07.032Z,17.60
2019-03-10T11:40:06.906Z,14.90
2019-03-10T11:41:07.015Z,15.50
2019-03-10T11:42:06.883Z,17.50
2019-03-10T11:43:06.925Z,18.30
2019-03-10T11:44:06.897Z,16.70
2019-03-10T11:45:07.000Z,18.20
2019-03-10T11:46:06.844Z,13.50
2019-03-10T11:47:06.956Z,19.50
2019-03-10T11:48:06.837Z,14.70
2019-03-10T11:49:06.877Z,15.30
2019-03-10T11:50:06.835Z,17.30
2019-03-10T11:51:06.914Z,18.60
2019-03-10T11:52:06.771Z,16.40
2019-03-10T11:53:06.791Z,16.00
2019-03-10T11:54:06.760Z,16.50
2019-03-10T11:55:06.906Z,14.80
2019-03-10T11:56:06.740Z,18.40
2019-03-10T11:57:06.832Z,18.90
2019-03-10T11:58:06.726Z,16.10
2019-03-10T11:59:06.763Z,16.10
2019-03-10T12:00:06.730Z,16.70
2019-03-10T12:01:06.756Z,18.90
2019-03-10T12:02:15.655Z,15.70
2019-03-10T12:03:07.656Z,16.50
2019-03-10T12:04:06.767Z,17.60
2019-03-10T12:05:06.685Z,20.30
2019-03-10T12:06:06.674Z,19.20
2019-03-10T12:07:06.607Z,17.50
2019-03-10T12:08:06.701Z,16.10
2019-03-10T12:09:06.648Z,17.50
2019-03-10T12:10:06.738Z,19.00
2019-03-10T12:11:06.561Z,16.20
2019-03-10T12:12:06.621Z,15.60
2019-03-10T12:13:06.548Z,13.80
2019-03-10T12:14:06.655Z,15.00
2019-03-10T12:15:06.552Z,14.60
2019-03-10T12:16:06.554Z,14.50
2019-03-10T12:17:06.499Z,14.10
2019-03-10T12:18:06.557Z,13.80
2019-03-10T12:19:06.475Z,15.10
2019-03-10T12:20:06.596Z,15.30
2019-03-10T12:21:06.462Z,18.80
2019-03-10T12:22:06.518Z,16.50
2019-03-10T12:23:06.430Z,16.30
2019-03-10T12:24:06.501Z,21.10
2019-03-10T12:25:06.414Z,18.50
2019-03-10T12:26:06.536Z,20.20
2019-03-10T12:27:06.393Z,17.10
2019-03-10T12:28:06.422Z,18.80
2019-03-10T12:29:06.364Z,15.40
2019-03-10T12:30:06.429Z,21.70
2019-03-10T12:31:06.353Z,17.60
2019-03-10T12:32:06.480Z,15.20
2019-03-10T12:33:06.347Z,20.80
2019-03-10T12:34:06.359Z,19.30
2019-03-10T12:35:06.310Z,16.70
2019-03-10T12:36:06.423Z,17.40
2019-03-10T12:37:06.278Z,24.00
2019-03-10T12:39:07.396Z,16.50
2019-03-10T12:40:06.301Z,15.30
2019-03-10T12:41:06.285Z,15.10
2019-03-10T12:42:06.321Z,12.50
2019-03-10T12:43:06.257Z,11.20
2019-03-10T12:44:06.329Z,11.50
2019-03-10T12:45:06.190Z,11.60
2019-03-10T12:46:06.234Z,10.00
2019-03-10T12:47:06.201Z,13.00
2019-03-10T12:48:06.287Z,10.60
2019-03-10T12:49:06.169Z,11.70
2019-03-10T12:50:06.207Z,12.80
2019-03-10T12:51:06.138Z,11.30
2019-03-10T12:52:06.205Z,11.90
2019-03-10T12:53:06.100Z,12.10
2019-03-10T12:54:06.188Z,10.70
2019-03-10T12:55:06.086Z,13.50
2019-03-10T12:56:06.495Z,15.50
2019-03-10T12:57:06.085Z,14.50
2019-03-10T12:58:06.119Z,15.30
2019-03-10T12:59:06.259Z,16.10
2019-03-10T13:00:06.141Z,16.80
2019-03-10T13:01:06.868Z,15.70
2019-03-10T13:02:06.071Z,14.30
2019-03-10T13:03:05.988Z,18.20
2019-03-10T13:04:06.057Z,17.10
2019-03-10T13:05:05.961Z,20.80
2019-03-10T13:06:06.190Z,16.20
2019-03-10T13:07:05.948Z,18.00
2019-03-10T13:08:06.251Z,21.00
2019-03-10T13:09:05.916Z,18.00
2019-03-10T13:10:06.021Z,19.10
2019-03-10T13:11:05.899Z,19.20
2019-03-10T13:12:06.032Z,21.50
2019-03-10T13:13:05.933Z,17.80
2019-03-10T13:14:05.926Z,18.90
2019-03-10T13:15:05.867Z,26.10
2019-03-10T13:16:06.046Z,22.50
2019-03-10T13:17:05.835Z,22.60
2019-03-10T13:18:06.492Z,21.10
2019-03-10T13:19:05.809Z,25.00
2019-03-10T13:20:05.965Z,21.80
2019-03-10T13:21:05.794Z,22.20